Time;durP1;ratioP1;P1;durP2;ratioP2;P2;SDS_P1;SDS_P2;PMS_P1;PMS_P2;Temp;Humidity;BMP_temperature;BMP_pressure;BME280_temperature;BME280_humidity;BME280_pressure;Samples;Min_cycle;Max_cycle;Signal;HPM_P1;HPM_P2
2022/11/12 00:00:35;;;;;;;10.50;7.05;;;;;;;4.01;100.00;97283.78;5039327;28;20033;-70
2022/11/12 00:03:00;;;;;;;9.60;6.72;;;;;;;4.03;100.00;97288.09;5054821;28;20035;-70
2022/11/12 00:05:26;;;;;;;9.05;6.95;;;;;;;4.04;100.00;97287.19;5065834;28;20035;-61
2022/11/12 00:07:51;;;;;;;7.00;6.30;;;;;;;4.05;100.00;97286.25;5062661;28;20449;-59
2022/11/12 00:10:17;;;;;;;9.15;6.82;;;;;;;4.01;100.00;97293.38;5047176;28;20127;-61
2022/11/12 00:12:43;;;;;;;9.18;6.97;;;;;;;3.97;100.00;97284.81;5054867;28;20032;-62
2022/11/12 00:15:09;;;;;;;8.98;7.03;;;;;;;3.96;100.00;97290.09;5055160;28;20516;-61
2022/11/12 00:17:34;;;;;;;10.25;7.10;;;;;;;3.91;100.00;97292.03;5036763;28;20041;-61
2022/11/12 00:20:00;;;;;;;9.52;6.97;;;;;;;3.93;100.00;97279.78;5054394;28;20032;-62
2022/11/12 00:22:25;;;;;;;7.93;6.63;;;;;;;3.97;100.00;97287.44;5059840;28;20112;-61
2022/11/12 00:24:51;;;;;;;7.18;6.50;;;;;;;3.94;100.00;97282.34;5062283;28;20039;-61
2022/11/12 00:27:16;;;;;;;7.10;6.40;;;;;;;3.90;100.00;97283.38;5048438;28;20026;-59
2022/11/12 00:29:41;;;;;;;15.68;7.32;;;;;;;3.87;100.00;97273.91;5038168;28;20522;-59
2022/11/12 00:32:08;;;;;;;12.70;7.22;;;;;;;3.90;100.00;97274.72;5064126;28;20119;-59
2022/11/12 00:34:34;;;;;;;6.93;6.20;;;;;;;3.90;100.00;97277.31;5065922;28;20810;-59
2022/11/12 00:37:00;;;;;;;11.88;6.50;;;;;;;3.86;100.00;97266.16;5063277;28;20536;-59
2022/11/12 00:39:26;;;;;;;7.13;6.43;;;;;;;3.81;100.00;97271.56;5060412;28;20051;-59
2022/11/12 00:41:52;;;;;;;7.50;6.82;;;;;;;3.75;100.00;97271.78;5062786;28;20030;-58
2022/11/12 00:44:17;;;;;;;7.43;6.53;;;;;;;3.77;100.00;97263.94;5059615;28;20105;-60
2022/11/12 00:46:43;;;;;;;10.25;6.40;;;;;;;3.77;100.00;97264.78;5047978;28;20033;-54
2022/11/12 00:49:08;;;;;;;6.57;5.97;;;;;;;3.83;100.00;97261.06;5050098;28;20025;-53
2022/11/12 00:51:34;;;;;;;6.53;6.03;;;;;;;3.77;100.00;97271.75;5050335;28;20044;-55
2022/11/12 00:53:59;;;;;;;6.90;6.20;;;;;;;3.72;100.00;97266.72;5052101;28;20020;-56
2022/11/12 00:56:25;;;;;;;6.70;6.18;;;;;;;3.74;100.00;97267.50;5054475;28;20043;-55
2022/11/12 00:58:50;;;;;;;7.97;6.05;;;;;;;3.69;100.00;97270.31;5058313;28;20112;-54
2022/11/12 01:01:16;;;;;;;8.52;6.40;;;;;;;3.67;100.00;97263.44;5057779;28;20033;-54
2022/11/12 01:03:42;;;;;;;7.78;7.07;;;;;;;3.65;100.00;97260.91;5061026;28;20028;-59
2022/11/12 01:06:13;;;;;;;7.30;6.20;;;;;;;3.68;100.00;97266.00;5052747;28;20079;-59
2022/11/12 01:08:39;;;;;;;7.22;6.57;;;;;;;3.63;100.00;97262.72;5058298;28;20502;-58
2022/11/12 01:11:13;;;;;;;8.23;7.20;;;;;;;3.63;100.00;97267.09;5048142;28;20285;-59
2022/11/12 01:13:41;;;;;;;9.45;6.80;;;;;;;3.62;100.00;97263.63;5054139;28;20032;-59
2022/11/12 01:16:12;;;;;;;9.48;6.03;;;;;;;3.65;100.00;97258.31;5062106;28;20116;-59
2022/11/12 01:18:38;;;;;;;10.73;5.80;;;;;;;3.65;100.00;97263.53;5055644;28;20032;-59
2022/11/12 01:21:05;;;;;;;6.28;5.78;;;;;;;3.60;100.00;97262.00;5056103;28;20506;-59
2022/11/12 01:23:32;;;;;;;6.78;5.68;;;;;;;3.55;100.00;97264.78;5054620;28;20106;-61
2022/11/12 01:26:02;;;;;;;6.22;5.63;;;;;;;3.61;100.00;97264.53;5053458;28;20027;-69
2022/11/12 01:28:28;;;;;;;8.82;6.57;;;;;;;3.63;100.00;97260.09;5057091;28;21816;-70
2022/11/12 01:30:53;;;;;;;6.38;5.80;;;;;;;3.61;100.00;97255.88;5061935;28;20020;-70
2022/11/12 01:33:18;;;;;;;7.93;5.35;;;;;;;3.58;100.00;97267.25;5066723;28;20040;-69
2022/11/12 01:35:44;;;;;;;6.28;5.72;;;;;;;3.54;100.00;97258.72;5057483;28;20029;-70
2022/11/12 01:38:09;;;;;;;5.65;5.15;;;;;;;3.50;100.00;97264.94;5064366;28;20032;-70
2022/11/12 01:40:34;;;;;;;8.35;5.95;;;;;;;3.50;100.00;97266.72;5068911;28;20127;-60
2022/11/12 01:42:59;;;;;;;6.15;5.15;;;;;;;3.43;100.00;97266.09;5048025;28;20048;-62
2022/11/12 01:45:25;;;;;;;5.75;5.10;;;;;;;3.40;100.00;97263.63;5048403;28;20048;-61
2022/11/12 01:47:51;;;;;;;5.30;4.90;;;;;;;3.38;100.00;97268.88;5053223;28;20043;-63
2022/11/12 01:50:28;;;;;;;6.10;5.28;;;;;;;3.35;100.00;97261.19;5062633;28;20039;-61
2022/11/12 01:53:13;;;;;;;8.35;5.00;;;;;;;3.37;100.00;97266.34;5071663;28;20036;-61
2022/11/12 01:55:39;;;;;;;4.85;4.38;;;;;;;3.39;100.00;97270.56;5069969;28;20032;-62
2022/11/12 01:58:11;;;;;;;6.00;5.40;;;;;;;3.38;100.00;97271.47;5073634;28;20040;-61
2022/11/12 02:00:36;;;;;;;5.43;4.93;;;;;;;3.37;100.00;97272.38;5070923;28;20450;-60
2022/11/12 02:03:07;;;;;;;6.03;5.20;;;;;;;3.36;100.00;97265.47;5070964;28;20037;-55
2022/11/12 02:05:36;;;;;;;5.43;4.93;;;;;;;3.32;100.00;97265.69;5073331;28;20036;-60
2022/11/12 02:08:03;;;;;;;5.28;4.88;;;;;;;3.30;100.00;97268.31;5071857;28;20036;-59
2022/11/12 02:10:29;;;;;;;5.32;4.78;;;;;;;3.28;100.00;97255.34;5071436;28;20025;-59
2022/11/12 02:15:40;;;;;;;6.32;4.40;;;;;;;3.27;100.00;97260.63;5071994;28;20031;-60
2022/11/12 02:18:06;;;;;;;5.18;4.47;;;;;;;3.23;100.00;97252.09;5073261;28;20035;-60
2022/11/12 02:20:37;;;;;;;5.45;5.00;;;;;;;3.23;100.00;97256.47;5070625;28;20024;-59
2022/11/12 02:23:04;;;;;;;6.30;3.85;;;;;;;3.18;100.00;97256.63;5072152;28;20111;-56
2022/11/12 02:25:29;;;;;;;4.40;3.67;;;;;;;3.24;100.00;97253.78;5071258;28;20029;-53
2022/11/12 02:27:57;;;;;;;4.10;3.70;;;;;;;3.27;100.00;97245.84;5071836;28;20072;-55
2022/11/12 02:30:43;;;;;;;4.88;4.18;;;;;;;3.29;100.00;97249.25;5070578;28;20032;-54
2022/11/12 02:33:09;;;;;;;5.22;4.60;;;;;;;3.29;100.00;97238.00;5073572;28;20187;-56
2022/11/12 02:35:34;;;;;;;5.13;4.65;;;;;;;3.29;100.00;97241.44;5068930;28;20174;-55
2022/11/12 02:38:00;;;;;;;4.32;3.78;;;;;;;3.28;100.00;97231.91;5073134;28;20037;-53
2022/11/12 02:40:26;;;;;;;4.72;4.00;;;;;;;3.24;100.00;97237.31;5071708;28;20405;-61
2022/11/12 02:42:51;;;;;;;3.72;3.40;;;;;;;3.21;100.00;97232.25;5073549;28;20104;-55
2022/11/12 02:45:17;;;;;;;4.53;3.80;;;;;;;3.21;100.00;97227.03;5053154;28;20033;-56
2022/11/12 02:47:43;;;;;;;4.00;3.60;;;;;;;3.15;100.00;97221.13;5069829;28;20028;-54
2022/11/12 02:50:10;;;;;;;5.68;3.85;;;;;;;3.14;100.00;97219.44;5071847;28;20040;-56
2022/11/12 02:52:35;;;;;;;3.60;3.30;;;;;;;3.15;100.00;97218.53;5067873;28;20063;-53
2022/11/12 02:55:01;;;;;;;3.90;3.60;;;;;;;3.13;100.00;97212.53;5067832;28;20033;-54
2022/11/12 02:57:29;;;;;;;4.28;3.88;;;;;;;3.14;100.00;97209.03;5069470;28;20028;-53
2022/11/12 02:59:54;;;;;;;4.07;3.70;;;;;;;3.15;100.00;97202.09;5069469;28;20040;-70
2022/11/12 03:02:20;;;;;;;8.73;3.28;;;;;;;3.12;100.00;97197.00;5068993;28;20114;-69
2022/11/12 03:04:45;;;;;;;3.83;3.53;;;;;;;3.10;100.00;97202.25;5068962;28;20109;-69
2022/11/12 03:07:10;;;;;;;4.43;3.10;;;;;;;3.08;100.00;97196.25;5069296;28;20035;-69
2022/11/12 03:09:36;;;;;;;3.80;3.47;;;;;;;3.07;100.00;97188.50;5069962;28;20033;-69
2022/11/12 03:12:01;;;;;;;4.03;3.63;;;;;;;3.07;100.00;97191.97;5068985;28;20498;-69
2022/11/12 03:14:26;;;;;;;3.30;3.08;;;;;;;3.03;100.00;97189.53;5067415;28;20542;-69
2022/11/12 03:16:52;;;;;;;6.13;5.05;;;;;;;3.01;100.00;97189.59;5069027;28;20456;-69
2022/11/12 03:19:17;;;;;;;7.13;4.32;;;;;;;3.01;100.00;97192.22;5069222;28;20119;-61
2022/11/12 03:21:42;;;;;;;3.50;3.22;;;;;;;2.99;100.00;97194.84;5068381;28;20391;-70
2022/11/12 03:24:08;;;;;;;3.33;2.63;;;;;;;2.97;100.00;97199.28;5068789;28;20039;-70
2022/11/12 03:26:33;;;;;;;3.20;3.00;;;;;;;3.00;100.00;97193.13;5069368;28;20502;-69
2022/11/12 03:28:58;;;;;;;3.40;3.20;;;;;;;3.01;100.00;97192.22;5068963;28;20158;-70
2022/11/12 03:31:24;;;;;;;3.85;3.50;;;;;;;3.01;100.00;97190.44;5067010;28;20517;-69
2022/11/12 03:33:49;;;;;;;3.60;3.30;;;;;;;3.05;100.00;97192.91;5069139;28;20052;-69
2022/11/12 03:36:15;;;;;;;4.80;3.75;;;;;;;3.09;100.00;97194.50;5053760;28;20045;-70
2022/11/12 03:38:40;;;;;;;4.70;3.55;;;;;;;3.13;100.00;97196.91;5067011;28;20040;-59
2022/11/12 03:41:05;;;;;;;4.25;3.72;;;;;;;3.13;100.00;97191.72;5064071;28;20123;-61
2022/11/12 03:43:31;;;;;;;3.90;3.60;;;;;;;3.12;100.00;97190.03;5068874;28;20069;-61
2022/11/12 03:45:56;;;;;;;5.93;4.22;;;;;;;3.14;100.00;97187.38;5068992;28;20020;-60
2022/11/12 03:48:22;;;;;;;4.43;4.05;;;;;;;3.07;100.00;97186.75;5068274;28;20040;-61
2022/11/12 03:50:47;;;;;;;8.18;4.00;;;;;;;3.08;100.00;97191.06;5067704;28;20063;-61
2022/11/12 03:53:13;;;;;;;5.32;4.68;;;;;;;3.03;100.00;97185.19;5069070;28;20489;-60
2022/11/12 03:55:39;;;;;;;4.60;4.20;;;;;;;2.99;100.00;97194.84;5066061;28;20097;-70
2022/11/12 03:58:04;;;;;;;4.63;4.22;;;;;;;2.93;100.00;97196.81;5066892;28;20056;-59
2022/11/12 04:00:29;;;;;;;4.60;4.20;;;;;;;2.90;100.00;97194.34;5068998;28;20468;-70
2022/11/12 04:02:55;;;;;;;4.60;4.20;;;;;;;2.91;100.00;97196.03;5067843;28;20036;-70
2022/11/12 04:10:53;;;;;;;4.53;3.92;;;;;;;2.95;100.00;97188.06;5065384;28;20047;-70
2022/11/12 04:13:27;;;;;;;6.28;3.95;;;;;;;2.91;100.00;97191.69;5065973;28;20036;-70
2022/11/12 04:21:50;;;;;;;5.35;4.95;;;;;;;2.77;100.00;97196.56;5068312;28;20402;-70
2022/11/12 04:27:07;;;;;;;4.38;3.65;;;;;;;2.74;100.00;97187.09;5066876;28;20486;-70
2022/11/12 04:32:17;;;;;;;4.35;3.88;;;;;;;2.73;100.00;97188.00;5066696;28;20090;-70
2022/11/12 04:34:43;;;;;;;4.82;3.65;;;;;;;2.75;100.00;97194.00;5068621;28;20028;-60
2022/11/12 04:37:08;;;;;;;4.95;3.80;;;;;;;2.71;100.00;97192.41;5067532;28;20028;-60
2022/11/12 04:39:34;;;;;;;6.10;4.70;;;;;;;2.65;100.00;97195.25;5068223;28;20040;-53
2022/11/12 04:45:03;;;;;;;6.80;4.95;;;;;;;2.69;100.00;97192.50;5063967;28;20102;-54
2022/11/12 04:47:37;;;;;;;4.77;4.27;;;;;;;2.71;100.00;97195.03;5068054;28;20083;-54
2022/11/12 04:50:12;;;;;;;5.72;4.75;;;;;;;2.68;100.00;97190.81;5067113;28;20029;-53
2022/11/12 04:52:37;;;;;;;4.15;3.65;;;;;;;2.70;100.00;97198.53;5065909;28;20040;-53
2022/11/12 04:55:04;;;;;;;5.20;3.85;;;;;;;2.71;100.00;97193.28;5063408;28;20413;-61
2022/11/12 04:57:29;;;;;;;6.63;5.90;;;;;;;2.69;100.00;97196.84;5066347;28;20030;-71
2022/11/12 04:59:54;;;;;;;8.65;6.90;;;;;;;2.69;100.00;97195.09;5067058;28;20074;-69
2022/11/12 05:02:20;;;;;;;7.78;6.50;;;;;;;2.73;100.00;97193.22;5071199;28;20036;-73
2022/11/12 05:04:46;;;;;;;6.70;6.10;;;;;;;2.76;100.00;97187.91;5072410;28;20028;-71
2022/11/12 05:07:12;;;;;;;6.00;5.43;;;;;;;2.78;100.00;97190.44;5070994;28;20074;-70
2022/11/12 05:09:38;;;;;;;6.93;5.05;;;;;;;2.76;100.00;97198.28;5065409;28;20117;-70
2022/11/12 05:12:03;;;;;;;6.85;5.68;;;;;;;2.74;100.00;97189.72;5072407;28;20091;-70
2022/11/12 05:14:29;;;;;;;6.90;4.90;;;;;;;2.71;100.00;97195.03;5071717;28;20103;-60
2022/11/12 05:16:54;;;;;;;6.80;4.93;;;;;;;2.68;100.00;97185.59;5072231;28;20031;-61
2022/11/12 05:19:19;;;;;;;7.35;5.70;;;;;;;2.68;100.00;97185.59;5071458;28;20056;-60
2022/11/12 05:24:29;;;;;;;5.88;5.00;;;;;;;2.64;100.00;97183.16;5070974;28;20031;-61
2022/11/12 05:26:55;;;;;;;6.07;5.00;;;;;;;2.64;100.00;97183.16;5071938;28;20035;-61
2022/11/12 05:29:20;;;;;;;4.95;4.50;;;;;;;2.67;100.00;97180.44;5071461;28;20032;-61
2022/11/12 05:31:46;;;;;;;5.20;4.70;;;;;;;2.65;100.00;97171.84;5071148;28;20053;-61
2022/11/12 05:34:12;;;;;;;8.75;4.63;;;;;;;2.63;100.00;97177.09;5070960;28;20113;-59
2022/11/12 05:36:38;;;;;;;4.60;4.20;;;;;;;2.61;100.00;97167.69;5071982;28;20033;-61
2022/11/12 05:39:03;;;;;;;4.53;4.13;;;;;;;2.59;100.00;97175.53;5070497;28;20496;-61
2022/11/12 05:41:29;;;;;;;6.00;4.40;;;;;;;2.57;100.00;97173.00;5071099;28;20032;-61
2022/11/12 05:43:54;;;;;;;4.97;4.45;;;;;;;2.56;100.00;97168.69;5071140;28;20032;-62
2022/11/12 05:46:20;;;;;;;4.57;4.18;;;;;;;2.54;100.00;97165.31;5071804;28;20154;-62
2022/11/12 05:48:46;;;;;;;5.50;4.38;;;;;;;2.52;100.00;97169.69;5071199;28;20421;-62
2022/11/12 05:51:14;;;;;;;4.75;4.35;;;;;;;2.53;100.00;97160.16;5070600;28;20036;-61
2022/11/12 05:53:40;;;;;;;4.55;4.15;;;;;;;2.51;100.00;97167.16;5071918;28;20043;-60
2022/11/12 05:56:07;;;;;;;4.85;4.20;;;;;;;2.51;100.00;97172.38;5070581;28;20070;-59
2022/11/12 05:58:32;;;;;;;5.10;4.60;;;;;;;2.52;100.00;97174.88;5068441;28;20028;-59
2022/11/12 06:00:58;;;;;;;5.35;4.68;;;;;;;2.50;100.00;97175.88;5071123;28;20024;-60
2022/11/12 06:03:24;;;;;;;4.82;4.40;;;;;;;2.47;100.00;97166.41;5070777;28;20071;-59
2022/11/12 06:05:50;;;;;;;6.22;5.00;;;;;;;2.47;100.00;97169.00;5071270;28;20493;-59
2022/11/12 06:08:16;;;;;;;7.35;6.28;;;;;;;2.49;100.00;97179.38;5064660;28;20196;-59
2022/11/12 06:10:46;;;;;;;8.10;7.03;;;;;;;2.51;100.00;97177.56;5070771;28;20044;-58
2022/11/12 06:13:11;;;;;;;8.48;7.20;;;;;;;2.52;100.00;97169.69;5069645;28;20024;-57
2022/11/12 06:15:37;;;;;;;9.55;8.65;;;;;;;2.51;100.00;97181.00;5043447;28;20040;-53
2022/11/12 06:18:02;;;;;;;10.50;9.40;;;;;;;2.53;100.00;97180.94;5069314;28;20070;-49
2022/11/12 06:20:27;;;;;;;11.77;10.63;;;;;;;2.51;100.00;97174.97;5069956;28;20033;-56
2022/11/12 06:22:53;;;;;;;10.52;9.45;;;;;;;2.50;100.00;97176.69;5071139;28;20036;-53
2022/11/12 06:25:18;;;;;;;10.15;9.13;;;;;;;2.48;100.00;97175.06;5070208;28;20029;-52
2022/11/12 06:27:43;;;;;;;7.75;7.03;;;;;;;2.45;100.00;97177.78;5069536;28;20074;-51
2022/11/12 06:30:09;;;;;;;6.10;5.57;;;;;;;2.47;100.00;97173.38;5070482;28;20039;-60
2022/11/12 06:32:35;;;;;;;8.23;5.70;;;;;;;2.46;100.00;97180.31;5070332;28;20040;-58
2022/11/12 06:35:00;;;;;;;6.30;5.80;;;;;;;2.44;100.00;97187.31;5070237;28;20033;-66
2022/11/12 06:37:26;;;;;;;7.55;6.88;;;;;;;2.46;100.00;97185.50;5069567;28;20041;-66
2022/11/12 06:39:51;;;;;;;6.40;5.82;;;;;;;2.46;100.00;97190.72;5071017;28;20039;-66
2022/11/12 06:42:17;;;;;;;7.43;6.78;;;;;;;2.42;100.00;97195.16;5069406;28;20032;-67
2022/11/12 06:44:42;;;;;;;5.95;5.10;;;;;;;2.41;100.00;97192.63;5069869;28;20433;-67
2022/11/12 06:47:08;;;;;;;6.10;5.60;;;;;;;2.41;100.00;97201.28;5068299;28;20028;-67
2022/11/12 06:49:34;;;;;;;5.78;5.30;;;;;;;2.40;100.00;97191.78;5069722;28;20039;-59
2022/11/12 06:51:59;;;;;;;9.52;4.95;;;;;;;2.46;100.00;97200.28;5070658;28;20036;-66
2022/11/12 06:54:25;;;;;;;6.20;5.70;;;;;;;2.49;100.00;97193.19;5069172;28;20029;-70
2022/11/12 06:56:50;;;;;;;8.68;4.68;;;;;;;2.55;100.00;97194.75;5050725;28;20035;-70
2022/11/12 06:59:16;;;;;;;6.15;5.07;;;;;;;2.57;100.00;97193.78;5069081;28;20035;-69
2022/11/12 07:01:41;;;;;;;5.75;5.25;;;;;;;2.62;100.00;97200.56;5070337;28;20028;-70
2022/11/12 07:04:06;;;;;;;5.90;5.40;;;;;;;2.66;100.00;97196.94;5069354;28;20482;-70
2022/11/12 07:06:33;;;;;;;7.32;5.13;;;;;;;2.70;100.00;97193.34;5067757;28;20044;-70
2022/11/12 07:08:58;;;;;;;5.03;4.63;;;;;;;2.73;100.00;97203.63;5070033;28;20094;-50
2022/11/12 07:11:24;;;;;;;5.07;4.78;;;;;;;2.75;100.00;97203.56;5069111;28;20048;-58
2022/11/12 07:13:49;;;;;;;5.53;4.97;;;;;;;2.80;100.00;97204.25;5069082;28;20023;-65
2022/11/12 07:16:18;;;;;;;5.00;4.53;;;;;;;2.86;100.00;97204.88;5069267;28;20036;-67
2022/11/12 07:18:45;;;;;;;7.32;6.18;;;;;;;2.93;100.00;97209.84;5069279;28;20037;-68
2022/11/12 07:21:13;;;;;;;7.55;6.85;;;;;;;3.01;100.00;97210.41;5069217;28;20583;-67
2022/11/12 07:23:38;;;;;;;8.48;7.68;;;;;;;3.06;100.00;97215.44;5069553;28;20561;-67
2022/11/12 07:26:12;;;;;;;9.55;8.68;;;;;;;3.08;100.00;97217.06;5069092;28;20029;-68
2022/11/12 07:28:38;;;;;;;11.38;10.27;;;;;;;3.17;100.00;97217.63;5065654;28;20071;-59
2022/11/12 07:31:06;;;;;;;13.15;10.40;;;;;;;3.22;100.00;97215.72;5069046;28;20052;-55
2022/11/12 07:33:32;;;;;;;15.77;12.82;;;;;;;3.23;100.00;97214.81;5069546;28;20043;-58
2022/11/12 07:36:00;;;;;;;17.75;15.02;;;;;;;3.28;100.00;97213.69;5068394;28;20028;-58
2022/11/12 07:38:27;;;;;;;18.13;14.73;;;;;;;3.37;100.00;97204.69;5068010;28;20055;-59
2022/11/12 07:40:58;;;;;;;33.10;26.60;;;;;;;3.44;100.00;97208.75;5068592;28;20035;-56
2022/11/12 07:43:23;;;;;;;36.38;32.33;;;;;;;3.57;100.00;97213.47;5051270;28;20550;-58
2022/11/12 07:45:48;;;;;;;37.08;29.15;;;;;;;3.67;100.00;97206.13;5067799;28;20132;-57
2022/11/12 07:48:14;;;;;;;33.78;23.98;;;;;;;3.74;100.00;97212.78;5065305;28;20043;-51
2022/11/12 07:50:39;;;;;;;30.05;22.83;;;;;;;3.82;100.00;97204.66;5063367;28;20049;-60
2022/11/12 07:53:04;;;;;;;23.10;19.85;;;;;;;3.92;100.00;97194.72;5068739;28;20067;-60
2022/11/12 07:55:30;;;;;;;23.27;18.70;;;;;;;4.04;100.00;97196.81;5068222;28;20067;-60
2022/11/12 07:57:58;;;;;;;20.55;17.48;;;;;;;4.18;100.00;97196.22;5069040;28;20064;-59
2022/11/12 08:00:23;;;;;;;19.90;17.13;;;;;;;4.30;100.00;97200.06;5068031;28;20036;-61
2022/11/12 08:02:48;;;;;;;15.95;14.32;;;;;;;4.38;100.00;97203.19;5068493;28;20043;-60
2022/11/12 08:05:14;;;;;;;17.52;15.68;;;;;;;4.45;100.00;97203.78;5067141;28;20043;-60
2022/11/12 08:07:39;;;;;;;22.10;18.75;;;;;;;4.55;100.00;97205.06;5068370;28;20037;-68
2022/11/12 08:10:05;;;;;;;14.95;13.40;;;;;;;4.59;100.00;97203.16;5068684;28;20107;-59
2022/11/12 08:12:30;;;;;;;14.88;13.38;;;;;;;4.63;100.00;97203.88;5068095;28;20082;-59
2022/11/12 08:14:56;;;;;;;15.18;13.43;;;;;;;4.72;100.00;97198.25;5068573;28;20032;-59
2022/11/12 08:17:21;;;;;;;13.63;12.25;;;;;;;4.77;100.00;97196.31;5068870;28;20097;-59
2022/11/12 08:19:46;;;;;;;13.55;11.00;;;;;;;4.90;100.00;97201.81;5065682;28;20070;-59
2022/11/12 08:22:12;;;;;;;10.68;9.27;;;;;;;4.96;100.00;97200.66;5068431;28;20032;-59
2022/11/12 08:24:37;;;;;;;10.05;9.05;;;;;;;5.03;100.00;97196.88;5068438;28;20028;-60
2022/11/12 08:27:02;;;;;;;10.10;9.00;;;;;;;5.13;100.00;97211.19;5068683;28;20055;-71
2022/11/12 08:29:28;;;;;;;10.77;8.93;;;;;;;5.24;100.00;97202.03;5083325;28;20059;-58
2022/11/12 08:31:53;;;;;;;9.25;8.20;;;;;;;5.32;100.00;97205.09;5067736;28;20105;-59
2022/11/12 08:34:18;;;;;;;8.57;7.70;;;;;;;5.48;100.00;97207.84;5067947;28;20060;-59
2022/11/12 08:36:44;;;;;;;6.97;5.95;;;;;;;5.53;100.00;97210.22;5070943;28;20028;-59
2022/11/12 08:39:09;;;;;;;8.43;7.63;;;;;;;5.55;100.00;97205.78;5072365;28;20111;-59
2022/11/12 08:41:34;;;;;;;11.25;10.05;;;;;;;5.61;100.00;97213.31;5070313;28;20529;-59
2022/11/12 08:44:00;;;;;;;12.30;9.70;;;;;;;5.68;100.00;97206.91;5051777;28;20029;-59
2022/11/12 08:46:25;;;;;;;9.32;8.40;;;;;;;5.73;100.00;97214.50;5073020;28;20029;-61
2022/11/12 08:48:51;;;;;;;9.40;8.02;;;;;;;5.84;100.00;97216.59;5072046;28;20031;-59
2022/11/12 08:51:16;;;;;;;6.35;5.75;;;;;;;5.94;100.00;97211.75;5072093;28;20131;-58
2022/11/12 08:53:41;;;;;;;7.15;5.57;;;;;;;6.01;100.00;97214.03;5071956;28;20090;-59
2022/11/12 08:56:07;;;;;;;8.25;5.15;;;;;;;6.12;100.00;97213.47;5071532;28;20048;-59
2022/11/12 08:58:32;;;;;;;5.93;5.03;;;;;;;6.28;100.00;97225.81;5045285;28;20043;-59
2022/11/12 09:01:06;;;;;;;7.82;5.13;;;;;;;6.37;100.00;97216.66;5072055;28;20040;-59
2022/11/12 09:03:31;;;;;;;7.10;4.50;;;;;;;6.44;100.00;97216.25;5070969;28;20409;-59
2022/11/12 09:06:01;;;;;;;7.45;5.47;;;;;;;6.61;100.00;97216.31;5072270;28;20028;-62
2022/11/12 09:08:26;;;;;;;6.07;5.57;;;;;;;6.70;100.00;97216.66;5071659;28;20037;-61
2022/11/12 09:10:51;;;;;;;5.68;5.18;;;;;;;6.82;100.00;97214.31;5072343;28;20032;-62
2022/11/12 09:13:18;;;;;;;5.70;5.20;;;;;;;6.95;100.00;97218.00;5070974;28;20028;-63
2022/11/12 09:15:44;;;;;;;4.85;4.43;;;;;;;7.07;100.00;97208.63;5067442;28;20045;-63
2022/11/12 09:18:15;;;;;;;5.15;4.72;;;;;;;7.16;100.00;97221.22;5072252;28;20032;-62
2022/11/12 09:20:40;;;;;;;9.77;7.80;;;;;;;7.31;100.00;97211.69;5071850;28;20036;-62
2022/11/12 09:23:09;;;;;;;6.53;4.45;;;;;;;7.42;100.00;97208.47;5071354;28;20032;-63
2022/11/12 09:25:35;;;;;;;6.60;4.00;;;;;;;7.50;100.00;97209.81;5067085;28;20036;-68
2022/11/12 09:28:11;;;;;;;4.05;3.78;;;;;;;7.58;100.00;97211.09;5042265;28;20545;-68
2022/11/12 09:30:40;;;;;;;5.13;3.70;;;;;;;7.71;100.00;97210.38;5070566;28;20042;-68
2022/11/12 09:33:05;;;;;;;3.53;3.20;;;;;;;7.73;100.00;97211.13;5072315;28;20041;-69
2022/11/12 09:35:31;;;;;;;4.68;3.50;;;;;;;7.78;100.00;97206.50;5071262;28;20051;-67
2022/11/12 09:37:58;;;;;;;3.95;3.00;;;;;;;7.83;100.00;97207.06;5072121;28;20041;-67
2022/11/12 09:40:46;;;;;;;4.25;3.60;;;;;;;7.86;100.00;97196.41;5066493;28;20060;-67
2022/11/12 09:43:28;;;;;;;7.10;4.47;;;;;;;7.91;100.00;97197.91;5069859;28;20032;-55
2022/11/12 09:45:56;;;;;;;4.13;3.60;;;;;;;7.95;100.00;97194.19;5070811;28;20036;-67
2022/11/12 09:48:46;;;;;;;3.00;2.80;;;;;;;8.00;100.00;97190.38;5070153;28;20528;-62
2022/11/12 09:51:20;;;;;;;7.57;3.33;;;;;;;7.98;100.00;97183.53;5069724;28;20417;-62
2022/11/12 09:53:56;;;;;;;3.47;3.13;;;;;;;8.00;100.00;97195.59;5068753;28;20036;-63
2022/11/12 09:56:23;;;;;;;5.20;4.00;;;;;;;8.12;100.00;97188.78;5070321;28;20035;-62
2022/11/12 09:58:49;;;;;;;3.80;3.50;;;;;;;8.16;100.00;97190.31;5066297;28;20040;-63
2022/11/12 10:01:18;;;;;;;3.92;3.60;;;;;;;8.24;100.00;97186.41;5070715;28;20383;-61
2022/11/12 10:04:03;;;;;;;3.88;3.45;;;;;;;8.31;100.00;97188.59;5070668;28;20182;-59
2022/11/12 10:06:40;;;;;;;4.15;3.75;;;;;;;8.40;100.00;97178.47;5070717;28;20162;-61
2022/11/12 10:09:15;;;;;;;3.58;3.28;;;;;;;8.42;100.00;97176.59;5069398;28;20031;-61
2022/11/12 10:16:41;;;;;;;3.20;2.97;;;;;;;8.71;100.00;97168.75;5071400;28;20468;-62
2022/11/12 10:18:12;;;;;;;3.03;2.72;;;;;;;8.72;100.00;97157.31;5069801;28;20480;-62
2022/11/12 10:21:18;;;;;;;2.58;2.38;;;;;;;8.82;100.00;97157.59;5047832;28;20080;-62
2022/11/12 10:23:52;;;;;;;3.60;2.35;;;;;;;8.88;100.00;97158.06;5068853;28;20078;-62
2022/11/12 10:26:20;;;;;;;3.47;2.40;;;;;;;8.92;99.01;97155.22;5070733;28;20538;-62
2022/11/12 10:28:46;;;;;;;2.30;2.20;;;;;;;8.96;99.52;97147.06;5052373;28;20044;-62
2022/11/12 10:31:21;;;;;;;3.15;2.33;;;;;;;9.03;96.13;97155.41;5070269;28;20503;-62
2022/11/12 10:33:46;;;;;;;2.30;2.10;;;;;;;9.11;93.43;97147.06;5070317;28;20083;-62
2022/11/12 10:36:27;;;;;;;2.33;2.17;;;;;;;9.20;94.55;97141.19;5070958;28;20176;-62
2022/11/12 10:38:54;;;;;;;2.28;2.00;;;;;;;9.28;93.28;97141.56;5070295;28;20048;-62
2022/11/12 10:41:21;;;;;;;2.33;2.13;;;;;;;9.37;93.15;97136.66;5069476;28;20029;-62
2022/11/12 10:43:55;;;;;;;2.70;2.50;;;;;;;9.36;91.24;97138.44;5070330;28;20040;-62
2022/11/12 10:46:25;;;;;;;2.70;2.45;;;;;;;9.41;92.30;97136.38;5068794;28;20042;-61
2022/11/12 10:48:56;;;;;;;2.50;2.30;;;;;;;9.42;90.48;97132.81;5070299;28;20067;-61
2022/11/12 10:51:25;;;;;;;2.03;1.80;;;;;;;9.41;89.14;97136.38;5069720;28;20068;-61
2022/11/12 10:53:51;;;;;;;3.28;1.80;;;;;;;9.43;89.08;97134.47;5070287;28;20040;-62
2022/11/12 10:56:28;;;;;;;1.83;1.70;;;;;;;9.48;88.53;97130.72;5069984;28;20485;-61
2022/11/12 10:59:12;;;;;;;2.47;2.28;;;;;;;9.59;88.85;97133.47;5065388;28;20036;-61
2022/11/12 11:01:37;;;;;;;5.20;2.50;;;;;;;9.64;87.74;97127.91;5054502;28;20094;-69
2022/11/12 11:04:03;;;;;;;3.90;3.33;;;;;;;9.66;88.18;97115.50;5085095;28;20450;-62
2022/11/12 11:06:28;;;;;;;3.25;3.03;;;;;;;9.59;88.32;97121.19;5063614;28;20032;-62
2022/11/12 11:09:14;;;;;;;3.50;3.30;;;;;;;9.57;89.14;97106.44;5069980;28;20532;-62
2022/11/12 11:11:50;;;;;;;;;;;;;;;9.60;90.97;97103.59;5069913;28;20032;-62
2022/11/12 11:14:21;;;;;;;3.72;3.42;;;;;;;9.62;91.30;97103.50;5068461;28;19920;-62
2022/11/12 11:16:59;;;;;;;4.55;3.60;;;;;;;9.58;89.56;97100.22;5068667;28;20072;-62
2022/11/12 11:19:36;;;;;;;5.00;2.92;;;;;;;9.60;91.96;97095.72;5061918;28;20460;-62
2022/11/12 11:22:35;;;;;;;6.88;3.63;;;;;;;9.68;92.50;97087.31;5069708;28;20024;-62
2022/11/12 11:25:22;;;;;;;4.15;3.75;;;;;;;9.69;92.79;97086.38;5062682;28;20396;-67
2022/11/12 11:28:04;;;;;;;3.65;3.15;;;;;;;9.69;91.82;97084.59;5068267;28;20387;-65
2022/11/12 11:30:30;;;;;;;4.18;3.38;;;;;;;9.77;92.55;97081.47;5063654;28;20032;-64
2022/11/12 11:33:17;;;;;;;5.47;3.30;;;;;;;9.83;92.01;97065.25;5067907;28;20043;-65
2022/11/12 11:35:55;;;;;;;3.63;3.33;;;;;;;9.95;91.59;97062.75;5059212;28;20032;-67
2022/11/12 11:38:37;;;;;;;3.35;3.05;;;;;;;10.01;89.50;97057.91;5061244;28;20063;-64
2022/11/12 11:41:52;;;;;;;3.78;2.80;;;;;;;10.09;85.25;97053.91;5066836;28;20518;-59
2022/11/12 11:44:30;;;;;;;2.53;2.33;;;;;;;10.17;85.52;97051.59;4980064;28;20450;-59
2022/11/12 11:46:57;;;;;;;2.63;2.42;;;;;;;10.27;87.64;97050.00;4979214;28;20118;-59
2022/11/12 11:49:34;;;;;;;2.60;2.40;;;;;;;10.28;86.00;97048.22;5032632;28;20044;-59
2022/11/12 11:52:27;;;;;;;5.85;3.50;;;;;;;10.30;82.69;97044.53;5064676;28;20132;-60
2022/11/12 11:55:36;;;;;;;4.78;2.83;;;;;;;10.27;83.81;97047.34;5065167;28;20040;-59
2022/11/12 11:58:20;;;;;;;3.97;3.13;;;;;;;10.29;85.12;97042.00;5065124;28;20169;-59
2022/11/12 12:01:00;;;;;;;2.80;2.63;;;;;;;10.32;86.04;97036.50;5066127;28;20029;-55
2022/11/12 12:03:46;;;;;;;6.50;3.42;;;;;;;10.28;85.95;97035.91;5066370;28;20043;-66
2022/11/12 12:06:27;;;;;;;5.22;3.65;;;;;;;10.32;87.74;97029.47;5066763;28;20071;-66